General Aviation Weather

Text Reports

Enter one or more of the following location identifiers separated by a space:

Zip Code, Four-Character ICAO or Three-Character IATA airport codes.

METAR - Aviation Routine Weather Report
GMTT - Tanger,
Updated at 6:30 AM GMT en Abril 19, 2014 (6:30 AM WET):
METAR GMTT 190630Z 21008KT 6000 BKN016 16/12 Q1012 NOSIG
TAF - Terminal Area Forecast
GMTT - Tanger,
Updated at 6:30 AM GMT en Abril 19, 2014 (6:30 AM WET):
TAF GMTT 190500Z 1907/1916 22008KT 6000 BKN016
     TEMPO 1908/1916 24012KT 8000=
Decoded:
ID: GMTT   Tangier/Boukhal, MC
REPORT TIME: 19  4: 0
INITIAL WX
   WEATHER: NIL
   COMMENTS: = 

INITIAL WX
   WEATHER: TAF_AMD_LTAU
   COMMENTS: 190415Z 1904/1924 VRB02KT 9999 SCT040 BKN100 
WX BECOMING FROM 05Z TO 08Z
   WINDS: 170 AT 20 GUST 35
TEMPORARY WX FROM 08Z TO 11Z
   WEATHER: -SHRA
   CLOUDS: 30 FEW WITH CB
   CLOUDS: 35 BKN
40% PROBABILITY OF WX 
TEMPORARY WX FROM 11Z TO 15Z
   WINDS: 170 AT 25 GUST 45
   WEATHER: -SHRA
   CLOUDS: 30 FEW WITH CB
   CLOUDS: 35 BKN
WX BECOMING FROM 16Z TO 19Z
   WIND: VARIABLE AT 2
   WEATHER: PROB
   COMMENTS: 30 
TEMPORARY WX FROM 19Z TO 22Z
   WINDS: 240 AT 15 GUST 25
   WEATHER: -TSRA
   CLOUDS: 25 FEW WITH CB
   CLOUDS: 30 BKN
   COMMENTS: = 

PIREP - Pilot Weather Report
GMTT - Tanger,
Updated at 6:30 AM GMT en Abril 19, 2014 (6:30 AM WET):
No PIREP is currently available for this location.
AIRMET - Airmens Meteorological Information
GMTT - Tanger,
Updated at 6:30 AM GMT en Abril 19, 2014 (6:30 AM WET):
No AIRMET is currently available for this location.
SIGMET - Significant Meteorological Information
GMTT - Tanger,
Updated at 6:30 AM GMT en Abril 19, 2014 (6:30 AM WET):
No SIGMET is currently available for this location.
NOTAM - Notice to Airmen
GMTT - Tanger,
Updated at 6:30 AM GMT en Abril 19, 2014 (6:30 AM WET):
No NOTAM is currently available for this location.
Forecast Area
GMTT - Tanger,
Updated at 6:30 AM GMT en Abril 19, 2014 (6:30 AM WET):
No NOTAM is currently available for this location.
Aviation Weather Maps